LFMTLFLY

Guest
Details From LFMT - Montpellier/Mediterranee
To LFLY - Lyon Bron
Flight Number -
Tags generated
Created
Modified
Stats Distance 136 nm / 252 km
Max Altitude 8,300 ft / 2,530 m
Waypoints 3
Social Downloads 2
Likes 0
Share VATSIM

Download

Looking for another format? Having issues loading an existing format? Contact us
Advertisement - Login to hide

Notes

Basic altitude profile: - Ascent Rate: 2500ft/min - Ascent Speed: 250kts - Cruise Altitude: 35000ft - Cruise Speed: 420kts - Descent Rate: 1500ft/min - Descent Speed: 250kts Options: - Use NATs: yes - Use PACOTS: yes - Use low airways: yes - Use high airways: yes

Route

LFMT NELEN LFLY

ID Type Via Altitude Latitude Longitude Leg Dist Tot Dist Heading (true) Name
O LFMT APT - 0 ft / 0 m 43.57626˚ 3.96326˚ - 0 nm - Montpellier/Mediterranee
NELEN FIX - 8,300 ft / 2,530 m 45.11861˚ 4.61167˚ 96 nm 96 nm 17° / 17° -
O LFLY APT - 0 ft / 0 m 45.72717˚ 4.94427˚ 39 nm 135 nm 21° / 21° Lyon Bron

Altitude Profile

Advertisement - Login to hide

LFMT

Details ICAO LFMT (MPL)
Name Montpellier/Mediterranee
Region France
Timezone Europe/Paris (UTC+2.0)
Stats Elevation 16 ft / 5 m (AMSL)
Location 43.576262° 3.963261°
Runways 2
Magnetic Variation 1.299° E

METAR

LFMT 251330Z AUTO 20007KT 160V220 CAVOK 23/14 Q1017 NOSIG

Decode

TAF

TAF LFMT 250800Z 2509/2609 18006KT CAVOK BECMG 2521/2523 VRB02KT PROB30 TEMPO 2604/2607 02012KT -SHRA BKN005 BKN100

Decode

Departure Runways

ID Width Length Bearing (true) Bearing (mag) Surface Threshold Offset Overrun Length
13L 164 ft / 50 m 8,525 ft / 2,598 m 124.78° 123.48° Asphalt 0 ft / 0 m 0 ft / 0 m
13R 98 ft / 30 m 3,611 ft / 1,101 m 124.80° 123.50° Asphalt 328 ft / 100 m 0 ft / 0 m
31L 98 ft / 30 m 3,611 ft / 1,101 m 304.81° 303.51° Asphalt 0 ft / 0 m 0 ft / 0 m
31R 164 ft / 50 m 8,525 ft / 2,598 m 304.80° 303.50° Asphalt 0 ft / 0 m 0 ft / 0 m

LFLY

Details ICAO LFLY (LYN)
Name Lyon Bron
Region France
Timezone Europe/Paris (UTC+2.0)
Stats Elevation 659 ft / 201 m (AMSL)
Location 45.727171° 4.944274°
Runways 1
Magnetic Variation 1.504° E

METAR

LFLY 251330Z AUTO 14005KT 090V190 CAVOK 28/14 Q1015 NOSIG

Decode

TAF

TAF AMD LFLY 251123Z 2512/2612 16005KT CAVOK TEMPO 2520/2606 VRB02KT

Decode

Destination Runways

ID Width Length Bearing (true) Bearing (mag) Surface Threshold Offset Overrun Length
16 148 ft / 45 m 5,972 ft / 1,820 m 163.44° 161.94° Asphalt 984 ft / 300 m 0 ft / 0 m
34 148 ft / 45 m 5,972 ft / 1,820 m 343.44° 341.94° Asphalt 984 ft / 300 m 0 ft / 0 m

Approach Navaids

Runway Type Ident Frequency Range Bearing (true) Bearing (mag) Slope Elevation
16 Localiser LBO 109.95 MHz 18 nm / 33 km 163.45° 161.95° - 653 ft / 199 m (AMSL)
16 DME LBO 109.95 MHz 18 nm / 33 km - - - 680 ft / 207 m (AMSL)
34 Localiser LY 111.30 MHz 18 nm / 33 km 343.44° 341.94° - 640 ft / 195 m (AMSL)
34 Glidescope LY 111.30 MHz 10 nm / 19 km 343.44° 341.94° 3.00° 659 ft / 201 m (AMSL)
34 DME LY 111.30 MHz 18 nm / 33 km - - - 715 ft / 218 m (AMSL)